Alpine, Utah
Current Conditions -  °F | °C
As of 7:54 AM on Wednesday 26 Nov 2014 (Local Time) from KPVU Reporting Station
Scattered Clouds Scattered Clouds  
Wind Chill: 27°   Ceiling: Unl
Heat Index: 27°   Visibility: 15mi
Dew Point: 23°   Wind: 0mph
Humidity: 86%   Direction: NA
Pressure: 30.41"   Gusts: NA
Location:  40.45°N, 111.78°W
Report Text: KPVU 261454Z 00000KT 15SM FEW070 SCT160 M03/M05 A3041
Loading
Personal Weather Stations






























Interactive Weather Map New forecast layout! Learn more

10-Day Weather Forecast

Advertisements
Track Severe Weather on mobile